createdAt,value
2023-07-11T00:01:15.154Z,27.35
2023-07-11T00:03:42.610Z,27.35
2023-07-11T00:06:16.065Z,27.36
2023-07-11T00:08:43.404Z,27.36
2023-07-11T00:11:12.445Z,27.37
2023-07-11T00:13:41.099Z,27.39
2023-07-11T00:16:12.340Z,27.39
2023-07-11T00:18:40.639Z,27.40
2023-07-11T00:21:08.261Z,27.40
2023-07-11T00:23:35.811Z,27.42
2023-07-11T00:26:04.149Z,27.42
2023-07-11T00:28:32.019Z,27.42
2023-07-11T00:31:00.069Z,27.43
2023-07-11T00:33:27.456Z,27.44
2023-07-11T00:35:55.257Z,27.44
2023-07-11T00:38:23.058Z,27.46
2023-07-11T00:40:52.423Z,27.46
2023-07-11T00:43:21.843Z,27.47
2023-07-11T00:46:04.557Z,27.47
2023-07-11T00:48:38.858Z,27.48
2023-07-11T00:51:09.798Z,27.48
2023-07-11T00:53:40.165Z,27.49
2023-07-11T00:56:13.409Z,27.49
2023-07-11T00:58:43.381Z,27.49
2023-07-11T01:01:11.812Z,27.50
2023-07-11T01:03:39.540Z,27.51
2023-07-11T01:06:14.742Z,27.51
2023-07-11T01:08:45.089Z,27.51
2023-07-11T01:11:12.653Z,27.52
2023-07-11T01:13:39.999Z,27.53
2023-07-11T01:16:07.922Z,27.53
2023-07-11T01:18:36.289Z,27.54
2023-07-11T01:21:05.623Z,27.53
2023-07-11T01:23:34.581Z,27.55
2023-07-11T01:26:08.241Z,27.56
2023-07-11T01:28:35.876Z,27.56
2023-07-11T01:31:05.447Z,27.56
2023-07-11T01:33:33.921Z,27.57
2023-07-11T01:36:02.688Z,27.58
2023-07-11T01:38:30.604Z,27.58
2023-07-11T01:40:57.970Z,27.58
2023-07-11T01:43:25.322Z,27.58
2023-07-11T01:45:52.700Z,27.58
2023-07-11T01:48:20.314Z,27.58
2023-07-11T01:50:49.647Z,27.59
2023-07-11T01:53:17.280Z,27.60
2023-07-11T01:55:54.642Z,27.60
2023-07-11T01:58:22.105Z,27.61
2023-07-11T02:00:49.513Z,27.60
2023-07-11T02:03:16.922Z,27.63
2023-07-11T02:05:44.284Z,27.63
2023-07-11T02:08:11.584Z,27.61
2023-07-11T02:10:41.666Z,27.62
2023-07-11T02:13:09.407Z,27.62
2023-07-11T02:15:41.617Z,27.63
2023-07-11T02:18:09.384Z,27.64
2023-07-11T02:20:45.149Z,27.64
2023-07-11T02:23:14.408Z,27.65
2023-07-11T02:25:42.697Z,27.65
2023-07-11T02:28:10.033Z,27.65
2023-07-11T02:30:37.501Z,27.66
2023-07-11T02:33:05.105Z,27.66
2023-07-11T02:35:32.436Z,27.65
2023-07-11T02:38:01.692Z,27.67
2023-07-11T02:40:29.154Z,27.68
2023-07-11T02:42:56.608Z,27.67
2023-07-11T02:45:24.523Z,27.69
2023-07-11T02:47:51.989Z,27.69
2023-07-11T02:50:19.390Z,27.69
2023-07-11T02:52:48.516Z,27.69
2023-07-11T02:55:15.844Z,27.70
2023-07-11T02:57:44.476Z,27.70
2023-07-11T03:00:12.623Z,27.70
2023-07-11T03:02:40.054Z,27.70
2023-07-11T03:05:09.468Z,27.69
2023-07-11T03:07:37.201Z,27.68
2023-07-11T03:10:04.861Z,27.69
2023-07-11T03:12:32.215Z,27.68
2023-07-11T03:15:00.672Z,27.67
2023-07-11T03:17:30.225Z,27.67
2023-07-11T03:19:57.608Z,27.68
2023-07-11T03:22:25.031Z,27.68
2023-07-11T03:24:52.337Z,27.69
2023-07-11T03:27:19.756Z,27.68
2023-07-11T03:29:47.103Z,27.67
2023-07-11T03:32:15.269Z,27.66
2023-07-11T03:34:53.096Z,27.67
2023-07-11T03:37:22.069Z,27.66
2023-07-11T03:39:49.438Z,27.67
2023-07-11T03:42:16.826Z,27.68
2023-07-11T03:44:44.210Z,27.67
2023-07-11T03:47:11.747Z,27.67
2023-07-11T03:49:39.054Z,27.67
2023-07-11T03:52:06.627Z,27.68
2023-07-11T03:54:33.982Z,27.67
2023-07-11T03:57:01.607Z,27.67
2023-07-11T03:59:29.105Z,27.69
2023-07-11T04:01:56.473Z,27.69
2023-07-11T04:04:23.799Z,27.70
2023-07-11T04:06:51.140Z,27.71
2023-07-11T04:09:18.485Z,27.71
2023-07-11T04:11:45.774Z,27.72
2023-07-11T04:14:13.095Z,27.72
2023-07-11T04:16:40.479Z,27.73
2023-07-11T04:19:07.841Z,27.72
2023-07-11T04:21:36.484Z,27.73
2023-07-11T04:24:04.060Z,27.72
2023-07-11T04:26:31.339Z,27.72
2023-07-11T04:28:58.650Z,27.70
2023-07-11T04:31:27.790Z,27.72
2023-07-11T04:33:55.098Z,27.72
2023-07-11T04:36:22.563Z,27.71
2023-07-11T04:38:51.093Z,27.71
2023-07-11T04:41:20.239Z,27.71
2023-07-11T04:43:47.528Z,27.71
2023-07-11T04:46:15.029Z,27.73
2023-07-11T04:48:42.492Z,27.73
2023-07-11T04:51:12.236Z,27.73
2023-07-11T04:53:40.448Z,27.74
2023-07-11T04:56:09.994Z,27.75
2023-07-11T04:58:37.832Z,27.74
2023-07-11T05:01:11.998Z,27.74
2023-07-11T05:03:39.975Z,27.74
2023-07-11T05:06:09.001Z,27.75
2023-07-11T05:08:36.640Z,27.75
2023-07-11T05:11:08.460Z,27.76
2023-07-11T05:13:36.400Z,27.75
2023-07-11T05:16:07.191Z,27.77
2023-07-11T05:18:44.011Z,27.76
2023-07-11T05:21:14.453Z,27.77
2023-07-11T05:23:41.885Z,27.78
2023-07-11T05:26:09.766Z,27.79
2023-07-11T05:28:37.483Z,27.79
2023-07-11T05:31:07.238Z,27.78
2023-07-11T05:33:35.071Z,27.80
2023-07-11T05:36:29.162Z,27.80
2023-07-11T05:38:56.616Z,27.81
2023-07-11T05:41:24.161Z,27.81
2023-07-11T05:43:51.496Z,27.82
2023-07-11T05:46:18.857Z,27.82
2023-07-11T05:48:46.247Z,27.83
2023-07-11T05:51:16.450Z,27.82
2023-07-11T05:53:44.723Z,27.83
2023-07-11T05:56:12.192Z,27.83
2023-07-11T05:58:40.730Z,27.84
2023-07-11T06:01:11.641Z,27.85
2023-07-11T06:03:42.116Z,27.86
2023-07-11T06:06:12.582Z,27.87
2023-07-11T06:08:40.011Z,27.87
2023-07-11T06:11:07.793Z,27.88
2023-07-11T06:13:38.305Z,27.89
2023-07-11T06:16:13.834Z,27.91
2023-07-11T06:18:41.306Z,27.93
2023-07-11T06:21:10.351Z,27.93
2023-07-11T06:23:38.078Z,27.95
2023-07-11T06:26:06.653Z,27.95
2023-07-11T06:28:36.210Z,27.96
2023-07-11T06:31:07.807Z,27.98
2023-07-11T06:33:36.195Z,27.98
2023-07-11T06:36:05.569Z,27.99
2023-07-11T06:38:33.088Z,28.00
2023-07-11T06:41:01.003Z,28.00
2023-07-11T06:43:29.797Z,28.01
2023-07-11T06:45:58.900Z,28.02
2023-07-11T06:48:29.404Z,28.03
2023-07-11T06:51:00.258Z,28.04
2023-07-11T06:53:30.443Z,28.03
2023-07-11T06:55:58.283Z,28.04
2023-07-11T06:58:25.856Z,28.04
2023-07-11T07:01:01.295Z,28.04
2023-07-11T07:03:29.532Z,28.03
2023-07-11T07:05:59.409Z,28.05
2023-07-11T07:08:27.831Z,28.05
2023-07-11T07:10:55.463Z,28.06
2023-07-11T07:13:24.463Z,28.07
2023-07-11T07:16:00.103Z,28.07
2023-07-11T07:18:32.150Z,28.08
2023-07-11T07:20:59.676Z,28.08
2023-07-11T07:23:28.163Z,28.09
2023-07-11T07:26:00.327Z,28.10
2023-07-11T07:28:29.740Z,28.12
2023-07-11T07:30:58.727Z,28.13
2023-07-11T07:33:27.522Z,28.13
2023-07-11T07:36:02.638Z,28.16
2023-07-11T07:38:30.290Z,28.17
2023-07-11T07:41:01.691Z,28.19
2023-07-11T07:43:30.707Z,28.19
2023-07-11T07:45:59.673Z,28.21
2023-07-11T07:48:27.422Z,28.22
2023-07-11T07:51:04.012Z,28.20
2023-07-11T07:53:31.739Z,28.21
2023-07-11T07:56:14.215Z,28.19
2023-07-11T07:58:44.620Z,28.19
2023-07-11T08:01:14.219Z,28.18
2023-07-11T08:03:42.287Z,28.19
2023-07-11T08:06:16.112Z,28.20
2023-07-11T08:08:46.681Z,28.20
2023-07-11T08:11:16.008Z,28.22
2023-07-11T08:16:28.557Z,28.22
2023-07-11T08:18:57.773Z,28.21
2023-07-11T08:21:25.365Z,28.23
2023-07-11T08:23:52.769Z,28.23
2023-07-11T08:26:21.383Z,28.23
2023-07-11T08:28:53.584Z,28.23
2023-07-11T08:31:22.300Z,28.23
2023-07-11T08:33:50.190Z,28.24
2023-07-11T08:36:17.671Z,28.24
2023-07-11T08:38:46.862Z,28.25
2023-07-11T08:41:49.380Z,28.25
2023-07-11T08:44:23.246Z,28.27
2023-07-11T08:46:59.447Z,28.27
2023-07-11T08:49:34.350Z,28.27
2023-07-11T08:52:03.437Z,28.29
2023-07-11T08:54:38.851Z,28.30
2023-07-11T08:57:10.729Z,28.31
2023-07-11T09:00:01.298Z,28.31
2023-07-11T09:03:13.084Z,28.33
2023-07-11T09:05:45.096Z,28.32
2023-07-11T09:08:22.064Z,28.30
2023-07-11T09:10:58.067Z,28.27
2023-07-11T09:13:28.038Z,28.25
2023-07-11T09:16:00.633Z,28.22
2023-07-11T09:18:44.158Z,28.20
2023-07-11T09:21:39.012Z,28.17
2023-07-11T09:24:32.492Z,28.16
2023-07-11T09:27:23.050Z,28.15
2023-07-11T09:29:51.453Z,28.15
2023-07-11T09:32:19.886Z,28.13
2023-07-11T09:34:50.554Z,28.13
2023-07-11T09:37:35.889Z,28.14
2023-07-11T09:40:12.398Z,28.13
2023-07-11T09:42:48.774Z,28.13
2023-07-11T09:45:23.979Z,28.14
2023-07-11T09:48:07.170Z,28.14
2023-07-11T09:51:14.185Z,28.14
2023-07-11T09:53:46.527Z,28.14
2023-07-11T09:56:16.964Z,28.14
2023-07-11T09:58:52.105Z,28.15
2023-07-11T10:01:34.044Z,28.16
2023-07-11T10:04:04.476Z,28.16
2023-07-11T10:06:47.593Z,28.17
2023-07-11T10:09:38.939Z,28.17
2023-07-11T10:12:15.839Z,28.18
2023-07-11T10:14:46.678Z,28.18
2023-07-11T10:17:24.073Z,28.19
2023-07-11T10:20:03.557Z,28.20
2023-07-11T10:22:37.679Z,28.20
2023-07-11T10:25:19.810Z,28.22
2023-07-11T10:27:55.811Z,28.23
2023-07-11T10:30:30.888Z,28.23
2023-07-11T10:33:22.207Z,28.23
2023-07-11T10:36:20.595Z,28.22
2023-07-11T10:38:56.461Z,28.24
2023-07-11T10:41:30.369Z,28.24
2023-07-11T10:44:00.464Z,28.25
2023-07-11T10:46:43.931Z,28.25
2023-07-11T10:49:17.240Z,28.25
2023-07-11T10:51:57.184Z,28.25
2023-07-11T10:54:39.566Z,28.27
2023-07-11T10:57:17.138Z,28.27
2023-07-11T10:59:46.402Z,28.27
2023-07-11T11:02:20.509Z,28.28
2023-07-11T11:05:26.166Z,28.27
2023-07-11T11:08:02.132Z,28.29
2023-07-11T11:10:52.426Z,28.29
2023-07-11T11:13:43.794Z,28.28
2023-07-11T11:19:16.567Z,27.78
2023-07-11T11:22:16.071Z,27.57
2023-07-11T11:25:02.578Z,27.37
2023-07-11T11:28:04.741Z,27.22
2023-07-11T11:31:00.258Z,27.10
2023-07-11T11:33:49.157Z,27.02
2023-07-11T11:36:30.331Z,26.94
2023-07-11T11:39:20.040Z,26.85
2023-07-11T11:41:52.285Z,26.79
2023-07-11T11:47:00.521Z,26.67
2023-07-11T11:52:01.281Z,26.54
2023-07-11T11:54:37.303Z,26.49
2023-07-11T11:57:05.133Z,26.46
2023-07-11T11:59:32.983Z,26.40
2023-07-11T12:02:17.474Z,26.34
2023-07-11T12:05:02.412Z,26.27
2023-07-11T12:07:33.202Z,26.21
2023-07-11T12:10:09.925Z,26.18
2023-07-11T12:12:37.349Z,26.11
2023-07-11T12:15:13.849Z,26.07
2023-07-11T12:17:41.362Z,26.03
2023-07-11T12:20:08.765Z,26.01
2023-07-11T12:22:39.170Z,26.02
2023-07-11T12:25:06.500Z,26.02
2023-07-11T12:27:33.770Z,26.02
2023-07-11T12:30:26.679Z,26.02
2023-07-11T12:32:56.133Z,26.01
2023-07-11T12:35:26.063Z,26.00
2023-07-11T12:38:02.390Z,25.99
2023-07-11T12:40:38.981Z,25.99
2023-07-11T12:43:33.999Z,25.97
2023-07-11T12:46:07.415Z,25.98
2023-07-11T12:48:44.914Z,25.98
2023-07-11T12:51:27.183Z,25.97
2023-07-11T12:54:01.580Z,25.94
2023-07-11T12:56:30.486Z,25.92
2023-07-11T12:58:57.834Z,25.92
2023-07-11T13:01:25.893Z,25.89
2023-07-11T13:03:53.400Z,25.89
2023-07-11T13:06:31.040Z,25.91
2023-07-11T13:08:59.125Z,25.90
2023-07-11T13:11:29.518Z,25.91
2023-07-11T13:13:57.620Z,25.91
2023-07-11T13:16:34.120Z,25.90
2023-07-11T13:19:02.742Z,25.89
2023-07-11T13:21:30.266Z,25.88
2023-07-11T13:24:00.432Z,25.88
2023-07-11T13:26:30.464Z,25.83
2023-07-11T13:29:09.980Z,25.80
2023-07-11T13:31:38.918Z,25.79
2023-07-11T13:34:27.580Z,25.78
2023-07-11T13:36:56.641Z,25.74
2023-07-11T13:39:29.640Z,25.75
2023-07-11T13:41:59.585Z,25.72
2023-07-11T13:44:26.870Z,25.72
2023-07-11T13:46:54.363Z,25.74
2023-07-11T13:49:36.520Z,25.74
2023-07-11T13:52:04.972Z,25.74
2023-07-11T13:54:39.158Z,25.72
2023-07-11T13:57:07.384Z,25.72
2023-07-11T13:59:38.129Z,25.69
2023-07-11T14:02:14.921Z,25.71
2023-07-11T14:04:42.692Z,25.71
2023-07-11T14:07:10.480Z,25.72
2023-07-11T14:09:38.347Z,25.72
2023-07-11T14:12:06.871Z,25.71
2023-07-11T14:14:40.153Z,25.70
2023-07-11T14:17:16.123Z,25.70
2023-07-11T14:19:43.510Z,25.69
2023-07-11T14:22:21.585Z,25.69
2023-07-11T14:24:50.493Z,25.69
2023-07-11T14:27:18.959Z,25.67
2023-07-11T14:29:46.658Z,25.67
2023-07-11T14:32:20.910Z,25.70
2023-07-11T14:34:48.309Z,25.68
2023-07-11T14:37:17.221Z,25.62
2023-07-11T14:39:45.406Z,25.58
2023-07-11T14:42:25.113Z,25.55
2023-07-11T14:44:52.556Z,25.50
2023-07-11T14:47:20.091Z,25.49
2023-07-11T14:49:47.537Z,25.48
2023-07-11T14:52:27.033Z,25.49
2023-07-11T14:59:56.083Z,25.48
2023-07-11T15:02:30.367Z,25.53
2023-07-11T15:09:59.046Z,25.53
2023-07-11T15:17:28.489Z,25.57
2023-07-11T15:19:56.063Z,25.53
2023-07-11T15:22:26.774Z,25.51
2023-07-11T15:24:55.219Z,25.47
2023-07-11T15:27:24.329Z,25.44
2023-07-11T15:29:51.595Z,25.40
2023-07-11T15:32:25.360Z,25.38
2023-07-11T15:34:53.910Z,25.34
2023-07-11T15:37:21.231Z,25.36
2023-07-11T15:39:48.487Z,25.39
2023-07-11T15:42:27.259Z,25.37
2023-07-11T15:44:57.544Z,25.33
2023-07-11T15:47:25.023Z,25.31
2023-07-11T15:49:52.423Z,25.31
2023-07-11T15:52:21.331Z,25.35
2023-07-11T15:54:48.931Z,25.37
2023-07-11T15:57:23.099Z,25.44
2023-07-11T15:59:51.223Z,25.42
2023-07-11T16:02:20.764Z,25.49
2023-07-11T16:04:48.142Z,25.51
2023-07-11T16:07:18.833Z,25.53
2023-07-11T16:09:47.612Z,25.56
2023-07-11T16:12:17.565Z,25.57
2023-07-11T16:14:45.957Z,25.60
2023-07-11T16:17:19.226Z,25.61
2023-07-11T16:19:49.392Z,25.60
2023-07-11T16:22:19.578Z,25.61
2023-07-11T16:24:47.505Z,25.58
2023-07-11T16:27:18.777Z,25.54
2023-07-11T16:29:48.172Z,25.51
2023-07-11T16:32:16.062Z,25.46
2023-07-11T16:34:45.114Z,25.42
2023-07-11T16:37:19.762Z,25.40
2023-07-11T16:39:50.543Z,25.35
2023-07-11T16:42:23.397Z,25.36
2023-07-11T16:44:50.745Z,25.35
2023-07-11T16:47:18.773Z,25.31
2023-07-11T16:49:50.145Z,25.30
2023-07-11T16:52:17.668Z,25.28
2023-07-11T16:54:48.363Z,25.25
2023-07-11T16:57:20.620Z,25.24
2023-07-11T16:59:47.956Z,25.22
2023-07-11T17:02:36.257Z,25.21
2023-07-11T17:05:03.986Z,25.20
2023-07-11T17:07:31.923Z,25.17
2023-07-11T17:09:59.306Z,25.18
2023-07-11T17:12:27.615Z,25.21
2023-07-11T17:14:55.013Z,25.23
2023-07-11T17:17:26.453Z,25.23
2023-07-11T17:19:56.559Z,25.20
2023-07-11T17:29:19.140Z,25.51
2023-07-11T17:31:47.081Z,25.51
2023-07-11T17:34:19.050Z,25.50
2023-07-11T17:36:48.973Z,25.49
2023-07-11T17:39:22.507Z,25.49
2023-07-11T17:42:15.866Z,25.49
2023-07-11T17:44:45.680Z,25.51
2023-07-11T17:49:54.310Z,25.51
2023-07-11T17:52:30.452Z,25.53
2023-07-11T17:54:58.545Z,25.52
2023-07-11T17:57:33.532Z,25.52
2023-07-11T18:00:00.891Z,25.50
2023-07-11T18:02:38.284Z,25.50
2023-07-11T18:05:22.440Z,25.49
2023-07-11T18:07:50.853Z,25.50
2023-07-11T18:10:30.211Z,25.53
2023-07-11T18:13:09.520Z,25.55
2023-07-11T18:15:41.108Z,25.56
2023-07-11T18:18:32.843Z,25.54
2023-07-11T18:21:01.118Z,25.56
2023-07-11T18:23:28.765Z,25.56
2023-07-11T18:25:59.226Z,25.57
2023-07-11T18:28:26.794Z,25.57
2023-07-11T18:30:54.232Z,25.57
2023-07-11T18:33:22.484Z,25.58
2023-07-11T18:35:50.465Z,25.58
2023-07-11T18:38:21.928Z,25.57
2023-07-11T18:40:50.577Z,25.58
2023-07-11T18:43:17.945Z,25.58
2023-07-11T18:45:48.087Z,25.57
2023-07-11T18:48:16.180Z,25.56
2023-07-11T18:50:44.736Z,25.59
2023-07-11T18:53:12.144Z,25.56
2023-07-11T18:55:45.395Z,25.55
2023-07-11T18:58:13.503Z,25.56
2023-07-11T19:00:48.983Z,25.54
2023-07-11T19:03:18.634Z,25.53
2023-07-11T19:05:47.490Z,25.52
2023-07-11T19:08:16.000Z,25.53
2023-07-11T19:10:43.425Z,25.51
2023-07-11T19:13:10.766Z,25.52
2023-07-11T19:15:40.645Z,25.50
2023-07-11T19:18:17.061Z,25.50
2023-07-11T19:20:44.482Z,25.53
2023-07-11T19:23:26.623Z,25.52
2023-07-11T19:25:55.793Z,25.52
2023-07-11T19:28:32.555Z,25.53
2023-07-11T19:31:04.473Z,25.54
2023-07-11T19:33:32.025Z,25.52
2023-07-11T19:36:00.587Z,25.52
2023-07-11T19:38:29.684Z,25.54
2023-07-11T19:40:57.366Z,25.55
2023-07-11T19:43:24.977Z,25.58
2023-07-11T19:45:56.821Z,25.58
2023-07-11T19:48:28.112Z,25.57
2023-07-11T19:50:58.228Z,25.59
2023-07-11T19:53:25.921Z,25.58
2023-07-11T19:55:54.902Z,25.59
2023-07-11T19:58:24.532Z,25.57
2023-07-11T20:00:55.840Z,25.57
2023-07-11T20:03:23.642Z,25.56
2023-07-11T20:05:51.228Z,25.56
2023-07-11T20:08:21.342Z,25.57
2023-07-11T20:10:51.394Z,25.58
2023-07-11T20:13:20.815Z,25.58
2023-07-11T20:15:54.965Z,25.59
2023-07-11T20:18:27.716Z,25.61
2023-07-11T20:20:58.948Z,25.56
2023-07-11T20:23:27.712Z,25.58
2023-07-11T20:25:58.077Z,25.58
2023-07-11T20:28:25.499Z,25.58
2023-07-11T20:30:56.378Z,25.57
2023-07-11T20:33:24.013Z,25.58
2023-07-11T20:35:54.162Z,25.57
2023-07-11T20:38:23.565Z,25.56
2023-07-11T20:40:51.673Z,25.55
2023-07-11T20:43:19.709Z,25.57
2023-07-11T20:45:49.672Z,25.56
2023-07-11T20:48:23.160Z,25.55
2023-07-11T20:50:52.161Z,25.55
2023-07-11T20:53:22.801Z,25.53
2023-07-11T20:55:53.520Z,25.53
2023-07-11T20:58:20.802Z,25.52
2023-07-11T21:00:49.801Z,25.53
2023-07-11T21:03:19.471Z,25.51
2023-07-11T21:05:49.151Z,25.51
2023-07-11T21:08:32.643Z,25.51
2023-07-11T21:11:03.732Z,25.52
2023-07-11T21:13:31.080Z,25.51
2023-07-11T21:15:58.557Z,25.51
2023-07-11T21:18:27.005Z,25.52
2023-07-11T21:20:55.986Z,25.54
2023-07-11T21:23:23.823Z,25.57
2023-07-11T21:25:51.253Z,25.62
2023-07-11T21:28:30.166Z,25.64
2023-07-11T21:31:04.057Z,25.68
2023-07-11T21:33:32.709Z,25.68
2023-07-11T21:36:02.174Z,25.70
2023-07-11T21:38:31.779Z,25.72
2023-07-11T21:41:00.730Z,25.74
2023-07-11T21:43:28.093Z,25.75
2023-07-11T21:45:58.136Z,25.77
2023-07-11T21:48:27.701Z,25.77
2023-07-11T21:50:59.598Z,25.78
2023-07-11T21:53:29.922Z,25.77
2023-07-11T21:56:00.405Z,25.80
2023-07-11T21:58:27.853Z,25.80
2023-07-11T22:00:55.330Z,25.80
2023-07-11T22:03:25.818Z,25.79
2023-07-11T22:05:56.452Z,25.78
2023-07-11T22:08:33.043Z,25.77
2023-07-11T22:11:01.955Z,25.84
2023-07-11T22:13:32.022Z,25.94
2023-07-11T22:15:59.537Z,26.02
2023-07-11T22:18:30.082Z,26.09
2023-07-11T22:20:58.349Z,26.16
2023-07-11T22:23:25.702Z,26.21
2023-07-11T22:25:53.065Z,26.27
2023-07-11T22:28:23.113Z,26.33
2023-07-11T22:30:52.589Z,26.38
2023-07-11T22:33:20.181Z,26.42
2023-07-11T22:35:47.561Z,26.46
2023-07-11T22:38:16.784Z,26.49
2023-07-11T22:40:46.064Z,26.54
2023-07-11T22:43:20.180Z,26.61
2023-07-11T22:45:52.584Z,26.67
2023-07-11T22:48:23.044Z,26.72
2023-07-11T22:50:55.839Z,26.77
2023-07-11T22:53:32.553Z,26.83
2023-07-11T22:56:06.880Z,26.87
2023-07-11T22:58:36.252Z,26.91
2023-07-11T23:01:07.295Z,26.95
2023-07-11T23:03:35.622Z,26.98
2023-07-11T23:06:20.627Z,27.00
2023-07-11T23:08:49.501Z,27.03
2023-07-11T23:11:17.791Z,27.06
2023-07-11T23:13:46.206Z,27.09
2023-07-11T23:16:29.807Z,27.13
2023-07-11T23:19:06.294Z,27.16
2023-07-11T23:21:34.111Z,27.17
2023-07-11T23:24:02.103Z,27.19
2023-07-11T23:26:30.134Z,27.21
2023-07-11T23:28:57.705Z,27.22
2023-07-11T23:31:25.907Z,27.24
2023-07-11T23:33:53.621Z,27.27
2023-07-11T23:36:24.022Z,27.28
2023-07-11T23:38:53.602Z,27.30
2023-07-11T23:41:21.086Z,27.31
2023-07-11T23:43:49.000Z,27.32
2023-07-11T23:46:27.103Z,27.35
2023-07-11T23:48:55.274Z,27.36
2023-07-11T23:51:24.734Z,27.38
2023-07-11T23:53:52.805Z,27.39
2023-07-11T23:56:25.691Z,27.40
2023-07-11T23:58:53.830Z,27.41
